createdAt,value
2018-04-25T03:22:06.427Z,15.11
2018-04-25T03:23:06.496Z,15.01
2018-04-25T03:24:06.391Z,15.17
2018-04-25T03:25:06.356Z,14.93
2018-04-25T03:26:06.346Z,14.88
2018-04-25T03:27:16.225Z,14.75
2018-04-25T03:28:59.837Z,14.83
2018-04-25T03:29:59.797Z,14.90
2018-04-25T03:30:59.752Z,14.90
2018-04-25T03:31:59.763Z,14.94
2018-04-25T03:32:59.724Z,14.98
2018-04-25T03:33:59.765Z,14.80
2018-04-25T03:34:59.744Z,14.81
2018-04-25T03:35:59.766Z,14.67
2018-04-25T03:36:59.706Z,14.61
2018-04-25T03:37:59.707Z,14.69
2018-04-25T03:38:59.731Z,14.75
2018-04-25T03:39:59.710Z,15.02
2018-04-25T03:40:59.761Z,15.15
2018-04-25T03:41:59.695Z,14.93
2018-04-25T03:42:59.758Z,14.87
2018-04-25T03:43:59.733Z,14.80
2018-04-25T03:44:59.720Z,14.72
2018-04-25T03:45:59.707Z,14.87
2018-04-25T03:46:59.715Z,14.93
2018-04-25T03:47:59.737Z,15.03
2018-04-25T03:48:59.686Z,14.94
2018-04-25T03:49:59.708Z,15.20
2018-04-25T03:50:59.690Z,15.24
2018-04-25T03:51:59.682Z,15.09
2018-04-25T03:52:59.681Z,15.11
2018-04-25T03:53:59.688Z,15.09
2018-04-25T03:54:59.678Z,15.21
2018-04-25T03:55:59.719Z,15.24
2018-04-25T03:56:59.677Z,15.31
2018-04-25T03:57:59.726Z,15.35
2018-04-25T03:58:59.785Z,15.46
2018-04-25T03:59:59.680Z,15.36
2018-04-25T04:00:59.705Z,15.26
2018-04-25T04:01:59.707Z,15.52
2018-04-25T04:03:08.396Z,15.46
2018-04-25T04:04:54.795Z,15.24
